createdAt,value
2019-04-07T00:00:07.644Z,1007.236
2019-04-07T00:00:19.837Z,1007.279
2019-04-07T00:00:31.318Z,1007.2839
2019-04-07T00:00:43.560Z,1007.2767
2019-04-07T00:00:55.355Z,1007.3245
2019-04-07T00:01:06.832Z,1007.2725
2019-04-07T00:01:18.676Z,1007.3378
2019-04-07T00:01:30.599Z,1007.3026
2019-04-07T00:01:42.327Z,1007.297
2019-04-07T00:01:54.288Z,1007.265
2019-04-07T00:02:06.252Z,1007.2944
2019-04-07T00:02:17.867Z,1007.2532
2019-04-07T00:02:30.345Z,1007.2698
2019-04-07T00:02:41.546Z,1007.2517
2019-04-07T00:02:53.372Z,1007.287
2019-04-07T00:03:05.252Z,1007.2798
2019-04-07T00:03:17.387Z,1007.287
2019-04-07T00:03:28.937Z,1007.2985
2019-04-07T00:03:41.769Z,1007.2623
2019-04-07T00:03:53.601Z,1007.2761
2019-04-07T00:04:05.436Z,1007.2689
2019-04-07T00:04:17.267Z,1007.2943
2019-04-07T00:04:29.105Z,1007.296
2019-04-07T00:04:41.420Z,1007.2647
2019-04-07T00:04:52.783Z,1007.3074
2019-04-07T00:05:10.907Z,1007.2736
2019-04-07T00:05:17.377Z,1007.2695
2019-04-07T00:05:29.212Z,1007.2564
2019-04-07T00:05:41.510Z,1007.2373
2019-04-07T00:05:52.879Z,1007.2559
2019-04-07T00:06:05.297Z,1007.2554
2019-04-07T00:06:16.548Z,1007.2637
2019-04-07T00:06:28.378Z,1007.2948
2019-04-07T00:06:40.219Z,1007.2686
2019-04-07T00:06:52.136Z,1007.2231
2019-04-07T00:07:03.898Z,1007.2626
2019-04-07T00:07:15.741Z,1007.2379
2019-04-07T00:07:27.572Z,1007.2528
2019-04-07T00:07:39.403Z,1007.2518
2019-04-07T00:07:51.253Z,1007.2485
2019-04-07T00:08:03.069Z,1007.2561
2019-04-07T00:08:15.124Z,1007.2576
2019-04-07T00:08:27.306Z,1007.2477
2019-04-07T00:08:38.699Z,1007.2608
2019-04-07T00:08:50.937Z,1007.2554
2019-04-07T00:09:02.729Z,1007.2482
2019-04-07T00:09:14.117Z,1007.2623
2019-04-07T00:09:25.950Z,1007.2573
2019-04-07T00:09:37.789Z,1007.2429
2019-04-07T00:09:50.283Z,1007.2413
2019-04-07T00:10:01.792Z,1007.2413
2019-04-07T00:10:13.303Z,1007.2601
2019-04-07T00:10:25.138Z,1007.2536
2019-04-07T00:10:36.971Z,1007.242
2019-04-07T00:10:48.816Z,1007.2438
2019-04-07T00:11:01.339Z,1007.2323
2019-04-07T00:11:12.484Z,1007.2181
2019-04-07T00:11:24.317Z,1007.2881
2019-04-07T00:11:36.292Z,1007.2326
2019-04-07T00:11:48.526Z,1007.2369
2019-04-07T00:11:59.826Z,1007.2117
2019-04-07T00:12:11.668Z,1007.2572
2019-04-07T00:12:23.504Z,1007.2397
2019-04-07T00:12:35.833Z,1007.2859
2019-04-07T00:12:47.639Z,1007.252
2019-04-07T00:13:00.011Z,1007.2734
2019-04-07T00:13:12.355Z,1007.2843
2019-04-07T00:13:23.734Z,1007.2707
2019-04-07T00:13:35.569Z,1007.2394
2019-04-07T00:13:48.081Z,1007.262
2019-04-07T00:13:59.231Z,1007.2823
2019-04-07T00:14:11.139Z,1007.2707
2019-04-07T00:14:22.911Z,1007.2725
2019-04-07T00:14:34.746Z,1007.2492
2019-04-07T00:14:48.121Z,1007.2841
2019-04-07T00:14:59.403Z,1007.2401
2019-04-07T00:15:11.319Z,1007.2351
2019-04-07T00:15:23.073Z,1007.2648
2019-04-07T00:15:34.931Z,1007.294
2019-04-07T00:15:46.731Z,1007.2773
2019-04-07T00:15:59.015Z,1007.2385
2019-04-07T00:16:10.394Z,1007.2539
2019-04-07T00:16:23.230Z,1007.3043
2019-04-07T00:16:35.179Z,1007.2656
2019-04-07T00:16:46.896Z,1007.2946
2019-04-07T00:16:58.722Z,1007.2557
2019-04-07T00:17:10.577Z,1007.2673
2019-04-07T00:17:22.405Z,1007.2843
2019-04-07T00:17:34.232Z,1007.2885
2019-04-07T00:17:46.077Z,1007.2771
2019-04-07T00:17:57.915Z,1007.263
2019-04-07T00:18:10.350Z,1007.2602
2019-04-07T00:18:21.669Z,1007.2817
2019-04-07T00:18:33.447Z,1007.2427
2019-04-07T00:18:45.319Z,1007.2504
2019-04-07T00:18:57.150Z,1007.2538
2019-04-07T00:19:08.981Z,1007.274
2019-04-07T00:19:20.933Z,1007.2377
2019-04-07T00:19:32.642Z,1007.227
2019-04-07T00:19:44.741Z,1007.274
2019-04-07T00:19:56.949Z,1007.25
2019-04-07T00:20:08.785Z,1007.2846
2019-04-07T00:20:19.971Z,1007.2012
2019-04-07T00:20:32.077Z,1007.2205
2019-04-07T00:20:43.820Z,1007.2429
2019-04-07T00:20:55.486Z,1007.27
2019-04-07T00:21:07.330Z,1007.265
2019-04-07T00:21:19.164Z,1007.2968
2019-04-07T00:21:31.422Z,1007.2453
2019-04-07T00:21:42.841Z,1007.2672
2019-04-07T00:21:54.675Z,1007.2118
2019-04-07T00:22:06.514Z,1007.2548
2019-04-07T00:22:18.348Z,1007.2553
2019-04-07T00:22:30.175Z,1007.2624
2019-04-07T00:22:42.150Z,1007.2581
2019-04-07T00:22:53.853Z,1007.2312
2019-04-07T00:23:05.688Z,1007.2561
2019-04-07T00:23:17.671Z,1007.2701
2019-04-07T00:23:29.553Z,1007.279
2019-04-07T00:23:41.737Z,1007.25
2019-04-07T00:23:53.233Z,1007.2189
2019-04-07T00:24:05.697Z,1007.2698
2019-04-07T00:24:16.822Z,1007.2485
2019-04-07T00:24:28.667Z,1007.2815
2019-04-07T00:24:40.499Z,1007.2573
2019-04-07T00:24:52.324Z,1007.2424
2019-04-07T00:25:04.159Z,1007.2589
2019-04-07T00:25:16.526Z,1007.2081
2019-04-07T00:25:27.815Z,1007.2391
2019-04-07T00:25:39.897Z,1007.2426
2019-04-07T00:25:51.488Z,1007.2556
2019-04-07T00:26:03.320Z,1007.2365
2019-04-07T00:26:15.146Z,1007.2185
2019-04-07T00:26:26.984Z,1007.2497
2019-04-07T00:26:39.374Z,1007.2351
2019-04-07T00:26:51.246Z,1007.2142
2019-04-07T00:27:02.607Z,1007.2416
2019-04-07T00:27:14.448Z,1007.2553
2019-04-07T00:27:26.166Z,1007.2439
2019-04-07T00:27:37.984Z,1007.2446
2019-04-07T00:27:50.253Z,1007.2248
2019-04-07T00:28:01.856Z,1007.2423
2019-04-07T00:28:13.481Z,1007.25
2019-04-07T00:28:25.311Z,1007.2562
2019-04-07T00:28:37.174Z,1007.2626
2019-04-07T00:28:49.791Z,1007.289
2019-04-07T00:29:01.649Z,1007.2562
2019-04-07T00:29:13.030Z,1007.2385
2019-04-07T00:29:24.922Z,1007.2418
2019-04-07T00:29:36.755Z,1007.2391
2019-04-07T00:29:48.684Z,1007.2293
2019-04-07T00:30:00.431Z,1007.2651
2019-04-07T00:30:12.260Z,1007.249
2019-04-07T00:30:24.077Z,1007.2072
2019-04-07T00:30:36.168Z,1007.2249
2019-04-07T00:30:47.754Z,1007.2384
2019-04-07T00:30:59.582Z,1007.2234
2019-04-07T00:31:11.422Z,1007.2195
2019-04-07T00:31:23.814Z,1007.2418
2019-04-07T00:31:35.210Z,1007.2067
2019-04-07T00:31:46.918Z,1007.2489
2019-04-07T00:31:58.757Z,1007.2363
2019-04-07T00:32:11.100Z,1007.2331
2019-04-07T00:32:22.426Z,1007.1828
2019-04-07T00:32:34.402Z,1007.2464
2019-04-07T00:32:46.721Z,1007.2338
2019-04-07T00:32:58.416Z,1007.2207
2019-04-07T00:33:09.776Z,1007.2576
2019-04-07T00:33:22.004Z,1007.2767
2019-04-07T00:33:33.462Z,1007.2131
2019-04-07T00:33:45.388Z,1007.2461
2019-04-07T00:33:57.107Z,1007.2296
2019-04-07T00:34:09.587Z,1007.2482
2019-04-07T00:34:20.787Z,1007.2231
2019-04-07T00:34:32.651Z,1007.1973
2019-04-07T00:34:45.005Z,1007.2139
2019-04-07T00:34:56.849Z,1007.2139
2019-04-07T00:35:08.661Z,1007.2402
2019-04-07T00:35:24.392Z,1007.249
2019-04-07T00:35:33.592Z,1007.259
2019-04-07T00:35:44.658Z,1007.2118
2019-04-07T00:35:56.907Z,1007.238
2019-04-07T00:36:08.299Z,1007.2365
2019-04-07T00:36:20.573Z,1007.2355
2019-04-07T00:36:31.910Z,1007.2653
2019-04-07T00:36:43.745Z,1007.2
2019-04-07T00:36:55.764Z,1007.2158
2019-04-07T00:37:07.416Z,1007.2246
2019-04-07T00:37:19.257Z,1007.2461
2019-04-07T00:37:31.186Z,1007.2203
2019-04-07T00:37:42.933Z,1007.2259
2019-04-07T00:37:54.768Z,1007.2077
2019-04-07T00:38:07.323Z,1007.2221
2019-04-07T00:38:18.446Z,1007.2446
2019-04-07T00:38:30.531Z,1007.2524
2019-04-07T00:38:42.231Z,1007.2409
2019-04-07T00:38:53.941Z,1007.2442
2019-04-07T00:39:05.940Z,1007.2639
2019-04-07T00:39:18.017Z,1007.2276
2019-04-07T00:39:29.484Z,1007.2661
2019-04-07T00:39:41.384Z,1007.2442
2019-04-07T00:39:53.291Z,1007.2365
2019-04-07T00:40:05.394Z,1007.2432
2019-04-07T00:40:17.412Z,1007.2062
2019-04-07T00:40:28.681Z,1007.2026
2019-04-07T00:40:40.521Z,1007.1942
2019-04-07T00:40:52.516Z,1007.1937
2019-04-07T00:41:04.581Z,1007.168
2019-04-07T00:41:16.704Z,1007.1734
2019-04-07T00:41:27.871Z,1007.1994
2019-04-07T00:41:40.286Z,1007.1663
2019-04-07T00:41:51.799Z,1007.2329
2019-04-07T00:42:03.853Z,1007.168
2019-04-07T00:42:15.235Z,1007.2179
2019-04-07T00:42:27.497Z,1007.1994
2019-04-07T00:42:39.090Z,1007.167
2019-04-07T00:42:50.735Z,1007.184
2019-04-07T00:43:02.565Z,1007.172
2019-04-07T00:43:14.402Z,1007.1884
2019-04-07T00:43:26.390Z,1007.1696
2019-04-07T00:43:38.075Z,1007.1654
2019-04-07T00:43:49.902Z,1007.1414
2019-04-07T00:44:01.735Z,1007.1521
2019-04-07T00:44:13.565Z,1007.1884
2019-04-07T00:44:25.407Z,1007.1628
2019-04-07T00:44:37.806Z,1007.1578
2019-04-07T00:44:49.607Z,1007.1906
2019-04-07T00:45:00.901Z,1007.1199
2019-04-07T00:45:12.732Z,1007.1884
2019-04-07T00:45:25.142Z,1007.155
2019-04-07T00:45:36.981Z,1007.1707
2019-04-07T00:45:48.294Z,1007.1436
2019-04-07T00:46:00.121Z,1007.1775
2019-04-07T00:46:12.440Z,1007.1528
2019-04-07T00:46:24.283Z,1007.1594
2019-04-07T00:46:35.632Z,1007.1561
2019-04-07T00:46:47.645Z,1007.1434
2019-04-07T00:46:59.817Z,1007.1791
2019-04-07T00:47:11.133Z,1007.1395
2019-04-07T00:47:23.394Z,1007.1279
2019-04-07T00:47:34.921Z,1007.1521
2019-04-07T00:47:46.644Z,1007.1439
2019-04-07T00:47:58.483Z,1007.1482
2019-04-07T00:48:10.613Z,1007.1372
2019-04-07T00:48:22.198Z,1007.1752
2019-04-07T00:48:33.988Z,1007.1242
2019-04-07T00:48:45.826Z,1007.1404
2019-04-07T00:48:57.792Z,1007.1192
2019-04-07T00:49:09.540Z,1007.1383
2019-04-07T00:49:21.338Z,1007.134
2019-04-07T00:49:33.172Z,1007.1197
2019-04-07T00:49:45.089Z,1007.134
2019-04-07T00:49:56.845Z,1007.1701
2019-04-07T00:50:08.778Z,1007.1246
2019-04-07T00:50:20.530Z,1007.1051
2019-04-07T00:50:32.589Z,1007.1298
2019-04-07T00:50:44.855Z,1007.1604
2019-04-07T00:50:56.076Z,1007.1414
2019-04-07T00:51:07.907Z,1007.1291
2019-04-07T00:51:20.076Z,1007.1358
2019-04-07T00:51:32.017Z,1007.1331
2019-04-07T00:51:43.404Z,1007.1479
2019-04-07T00:51:55.229Z,1007.1314
2019-04-07T00:52:07.134Z,1007.1578
2019-04-07T00:52:19.450Z,1007.1304
2019-04-07T00:52:30.752Z,1007.1239
2019-04-07T00:52:42.702Z,1007.1303
2019-04-07T00:52:54.638Z,1007.1533
2019-04-07T00:53:06.540Z,1007.1467
2019-04-07T00:53:18.102Z,1007.0996
2019-04-07T00:53:30.014Z,1007.1683
2019-04-07T00:53:41.781Z,1007.1397
2019-04-07T00:53:53.903Z,1007.1677
2019-04-07T00:54:05.434Z,1007.1517
2019-04-07T00:54:17.297Z,1007.1264
2019-04-07T00:54:29.097Z,1007.1337
2019-04-07T00:54:40.941Z,1007.1781
2019-04-07T00:54:53.440Z,1007.1462
2019-04-07T00:55:04.595Z,1007.1352
2019-04-07T00:55:16.690Z,1007.127
2019-04-07T00:55:28.441Z,1007.1156
2019-04-07T00:55:40.798Z,1007.1535
2019-04-07T00:55:51.968Z,1007.1239
2019-04-07T00:56:03.943Z,1007.142
2019-04-07T00:56:15.808Z,1007.1367
2019-04-07T00:56:27.966Z,1007.1591
2019-04-07T00:56:40.283Z,1007.1383
2019-04-07T00:56:52.110Z,1007.1225
2019-04-07T00:57:04.422Z,1007.1367
2019-04-07T00:57:16.384Z,1007.1652
2019-04-07T00:57:27.621Z,1007.1322
2019-04-07T00:57:39.458Z,1007.1242
2019-04-07T00:57:51.735Z,1007.1795
2019-04-07T00:58:03.648Z,1007.139
2019-04-07T00:58:14.956Z,1007.1149
2019-04-07T00:58:26.913Z,1007.1389
2019-04-07T00:58:39.083Z,1007.1428
2019-04-07T00:58:50.460Z,1007.162
2019-04-07T00:59:02.768Z,1007.1505
2019-04-07T00:59:15.425Z,1007.1642
2019-04-07T00:59:27.040Z,1007.1387
2019-04-07T00:59:38.799Z,1007.1572
2019-04-07T00:59:50.634Z,1007.1584
2019-04-07T01:00:02.891Z,1007.1276
2019-04-07T01:00:16.355Z,1007.1765
2019-04-07T01:00:27.100Z,1007.1492
2019-04-07T01:00:38.931Z,1007.1696
2019-04-07T01:00:50.765Z,1007.1679
2019-04-07T01:01:02.600Z,1007.1859
2019-04-07T01:01:14.428Z,1007.1515
2019-04-07T01:01:26.295Z,1007.1607
2019-04-07T01:01:38.293Z,1007.1585
2019-04-07T01:01:51.433Z,1007.1367
2019-04-07T01:02:02.826Z,1007.2059
2019-04-07T01:02:14.665Z,1007.2207
2019-04-07T01:02:26.495Z,1007.1657
2019-04-07T01:02:38.800Z,1007.1489
2019-04-07T01:02:50.228Z,1007.1818
2019-04-07T01:03:01.999Z,1007.2136
2019-04-07T01:03:13.830Z,1007.2048
2019-04-07T01:03:25.997Z,1007.1791
2019-04-07T01:03:38.058Z,1007.1461
2019-04-07T01:03:49.313Z,1007.167
2019-04-07T01:04:01.182Z,1007.189
2019-04-07T01:04:13.096Z,1007.2302
2019-04-07T01:04:25.318Z,1007.1578
2019-04-07T01:04:36.633Z,1007.2061
2019-04-07T01:04:48.477Z,1007.2076
2019-04-07T01:05:00.311Z,1007.1798
2019-04-07T01:05:12.694Z,1007.2128
2019-04-07T01:05:34.069Z,1007.1995
2019-04-07T01:05:39.707Z,1007.2285
2019-04-07T01:05:49.588Z,1007.1546
2019-04-07T01:06:01.419Z,1007.2156
2019-04-07T01:06:13.260Z,1007.2171
2019-04-07T01:06:25.248Z,1007.2042
2019-04-07T01:06:37.309Z,1007.1884
2019-04-07T01:06:49.415Z,1007.1448
2019-04-07T01:07:00.667Z,1007.1685
2019-04-07T01:07:12.955Z,1007.1928
2019-04-07T01:07:24.565Z,1007.166
2019-04-07T01:07:36.225Z,1007.185
2019-04-07T01:07:48.770Z,1007.2022
2019-04-07T01:08:00.443Z,1007.199
2019-04-07T01:08:11.810Z,1007.1896
2019-04-07T01:08:23.562Z,1007.2104
2019-04-07T01:08:36.042Z,1007.1936
2019-04-07T01:08:47.753Z,1007.221
2019-04-07T01:08:59.172Z,1007.1497
2019-04-07T01:09:10.910Z,1007.164
2019-04-07T01:09:23.268Z,1007.1514
2019-04-07T01:09:35.237Z,1007.1965
2019-04-07T01:09:46.447Z,1007.1609
2019-04-07T01:09:58.536Z,1007.1372
2019-04-07T01:10:10.090Z,1007.1626
2019-04-07T01:10:21.934Z,1007.1659
2019-04-07T01:10:33.851Z,1007.1715
2019-04-07T01:10:45.839Z,1007.1823
2019-04-07T01:10:57.868Z,1007.1832
2019-04-07T01:11:09.263Z,1007.1781
2019-04-07T01:11:21.597Z,1007.1726
2019-04-07T01:11:33.087Z,1007.1601
2019-04-07T01:11:44.771Z,1007.1606
2019-04-07T01:11:56.605Z,1007.1523
2019-04-07T01:12:08.435Z,1007.1638
2019-04-07T01:12:20.436Z,1007.1496
2019-04-07T01:12:32.181Z,1007.1546
2019-04-07T01:12:44.462Z,1007.1688
2019-04-07T01:12:56.379Z,1007.1289
2019-04-07T01:13:07.762Z,1007.1333
2019-04-07T01:13:19.833Z,1007.1899
2019-04-07T01:13:31.958Z,1007.1826
2019-04-07T01:13:43.183Z,1007.1423
2019-04-07T01:13:55.503Z,1007.1859
2019-04-07T01:14:07.017Z,1007.1958
2019-04-07T01:14:18.695Z,1007.1762
2019-04-07T01:14:30.530Z,1007.1286
2019-04-07T01:14:42.360Z,1007.1779
2019-04-07T01:14:54.438Z,1007.242
2019-04-07T01:15:06.017Z,1007.1684
2019-04-07T01:15:17.843Z,1007.1618
2019-04-07T01:15:29.681Z,1007.1943
2019-04-07T01:15:41.705Z,1007.176
2019-04-07T01:15:53.772Z,1007.147
2019-04-07T01:16:05.199Z,1007.1487
2019-04-07T01:16:17.344Z,1007.1931
2019-04-07T01:16:29.395Z,1007.1876
2019-04-07T01:16:41.810Z,1007.1389
2019-04-07T01:16:53.537Z,1007.1439
2019-04-07T01:17:06.116Z,1007.1553
2019-04-07T01:17:18.208Z,1007.1652
2019-04-07T01:17:30.266Z,1007.1668
2019-04-07T01:17:42.352Z,1007.1472
2019-04-07T01:17:53.755Z,1007.1684
2019-04-07T01:18:05.597Z,1007.1203
2019-04-07T01:18:18.088Z,1007.1928
2019-04-07T01:18:29.258Z,1007.1774
2019-04-07T01:18:41.094Z,1007.1325
2019-04-07T01:18:53.491Z,1007.1143
2019-04-07T01:19:04.757Z,1007.1292
2019-04-07T01:19:16.594Z,1007.172
2019-04-07T01:19:28.855Z,1007.1292
2019-04-07T01:19:40.690Z,1007.1309
2019-04-07T01:19:52.092Z,1007.1226
2019-04-07T01:20:04.089Z,1007.1464
2019-04-07T01:20:16.140Z,1007.1403
2019-04-07T01:20:27.604Z,1007.1475
2019-04-07T01:20:39.433Z,1007.135
2019-04-07T01:20:51.866Z,1007.1199
2019-04-07T01:21:03.720Z,1007.1447
2019-04-07T01:21:14.975Z,1007.164
2019-04-07T01:21:26.764Z,1007.1124
2019-04-07T01:21:39.045Z,1007.1348
2019-04-07T01:21:51.099Z,1007.1481
2019-04-07T01:22:02.382Z,1007.1404
2019-04-07T01:22:14.408Z,1007.1206
2019-04-07T01:22:26.557Z,1007.0867
2019-04-07T01:22:37.832Z,1007.1394
2019-04-07T01:22:50.129Z,1007.1652
2019-04-07T01:23:01.627Z,1007.1519
2019-04-07T01:23:13.336Z,1007.1789
2019-04-07T01:23:25.172Z,1007.1816
2019-04-07T01:23:37.001Z,1007.1718
2019-04-07T01:23:49.040Z,1007.1816
2019-04-07T01:24:00.677Z,1007.1568
2019-04-07T01:24:12.511Z,1007.1883
2019-04-07T01:24:24.352Z,1007.1351
2019-04-07T01:24:36.392Z,1007.1657
2019-04-07T01:24:48.433Z,1007.184
2019-04-07T01:25:00.096Z,1007.1515
2019-04-07T01:25:11.708Z,1007.1812
2019-04-07T01:25:24.160Z,1007.1599
2019-04-07T01:25:35.732Z,1007.1647
2019-04-07T01:25:47.276Z,1007.15
2019-04-07T01:25:59.049Z,1007.1762
2019-04-07T01:26:11.209Z,1007.1515
2019-04-07T01:26:22.769Z,1007.1268
2019-04-07T01:26:34.551Z,1007.1665
2019-04-07T01:26:46.967Z,1007.1534
2019-04-07T01:26:58.864Z,1007.1292
2019-04-07T01:27:10.458Z,1007.1555
2019-04-07T01:27:21.976Z,1007.1436
2019-04-07T01:27:33.762Z,1007.1671
2019-04-07T01:27:45.605Z,1007.1292
2019-04-07T01:27:57.787Z,1007.159
2019-04-07T01:28:09.806Z,1007.1326
2019-04-07T01:28:21.163Z,1007.1173
2019-04-07T01:28:32.991Z,1007.1479
2019-04-07T01:28:44.919Z,1007.1737
2019-04-07T01:28:56.657Z,1007.135
2019-04-07T01:29:09.002Z,1007.1775
2019-04-07T01:29:20.934Z,1007.1486
2019-04-07T01:29:32.186Z,1007.1662
2019-04-07T01:29:44.219Z,1007.1201
2019-04-07T01:29:56.884Z,1007.114
2019-04-07T01:30:08.653Z,1007.1584
2019-04-07T01:30:20.484Z,1007.1652
2019-04-07T01:30:32.670Z,1007.1422
2019-04-07T01:30:44.153Z,1007.1699
2019-04-07T01:30:55.984Z,1007.1727
2019-04-07T01:31:07.817Z,1007.1657
2019-04-07T01:31:19.807Z,1007.1683
2019-04-07T01:31:31.484Z,1007.1508
2019-04-07T01:31:43.326Z,1007.1383
2019-04-07T01:31:55.160Z,1007.1426
2019-04-07T01:32:07.152Z,1007.1609
2019-04-07T01:32:19.183Z,1007.1623
2019-04-07T01:32:31.323Z,1007.1591
2019-04-07T01:32:42.500Z,1007.1821
2019-04-07T01:32:54.800Z,1007.1185
2019-04-07T01:33:06.423Z,1007.1738
2019-04-07T01:33:18.045Z,1007.1138
2019-04-07T01:33:29.896Z,1007.1492
2019-04-07T01:33:41.732Z,1007.1378
2019-04-07T01:33:53.561Z,1007.1251
2019-04-07T01:34:05.390Z,1007.14
2019-04-07T01:34:17.225Z,1007.1954
2019-04-07T01:34:29.056Z,1007.1582
2019-04-07T01:34:41.539Z,1007.1498
2019-04-07T01:34:52.739Z,1007.1879
2019-04-07T01:35:04.743Z,1007.1762
2019-04-07T01:35:16.798Z,1007.1615
2019-04-07T01:35:28.829Z,1007.1795
2019-04-07T01:35:46.017Z,1007.2075
2019-04-07T01:35:53.012Z,1007.1844
2019-04-07T01:36:05.234Z,1007.1566
2019-04-07T01:36:17.186Z,1007.1582
2019-04-07T01:36:28.357Z,1007.1729
2019-04-07T01:36:40.194Z,1007.1752
2019-04-07T01:36:52.038Z,1007.1504
2019-04-07T01:37:04.397Z,1007.2031
2019-04-07T01:37:16.216Z,1007.1853
2019-04-07T01:37:27.560Z,1007.1626
2019-04-07T01:37:39.569Z,1007.1445
2019-04-07T01:37:51.770Z,1007.1504
2019-04-07T01:38:03.055Z,1007.133
2019-04-07T01:38:15.298Z,1007.1702
2019-04-07T01:38:26.799Z,1007.1198
2019-04-07T01:38:38.588Z,1007.1932
2019-04-07T01:38:51.101Z,1007.1528
2019-04-07T01:39:02.832Z,1007.189
2019-04-07T01:39:14.117Z,1007.1873
2019-04-07T01:39:25.950Z,1007.1578
2019-04-07T01:39:38.267Z,1007.1923
2019-04-07T01:39:50.083Z,1007.1645
2019-04-07T01:40:01.595Z,1007.1645
2019-04-07T01:40:13.481Z,1007.184
2019-04-07T01:40:25.675Z,1007.1797
2019-04-07T01:40:36.966Z,1007.1846
2019-04-07T01:40:49.294Z,1007.1599
2019-04-07T01:41:00.832Z,1007.2104
2019-04-07T01:41:12.523Z,1007.1709
2019-04-07T01:41:24.284Z,1007.1626
2019-04-07T01:41:36.123Z,1007.177
2019-04-07T01:41:48.414Z,1007.1727
2019-04-07T01:42:00.001Z,1007.1743
2019-04-07T01:42:11.626Z,1007.1231
2019-04-07T01:42:23.455Z,1007.1932
2019-04-07T01:42:35.568Z,1007.1232
2019-04-07T01:42:47.170Z,1007.133
2019-04-07T01:42:58.956Z,1007.1768
2019-04-07T01:43:10.798Z,1007.1495
2019-04-07T01:43:22.749Z,1007.1447
2019-04-07T01:43:34.463Z,1007.1745
2019-04-07T01:43:47.299Z,1007.1556
2019-04-07T01:43:59.129Z,1007.1422
2019-04-07T01:44:11.288Z,1007.1417
2019-04-07T01:44:23.389Z,1007.1685
2019-04-07T01:44:34.659Z,1007.1912
2019-04-07T01:44:47.220Z,1007.1926
2019-04-07T01:44:58.446Z,1007.1242
2019-04-07T01:45:10.511Z,1007.1525
2019-04-07T01:45:22.004Z,1007.1564
2019-04-07T01:45:34.345Z,1007.1301
2019-04-07T01:45:45.775Z,1007.1515
2019-04-07T01:45:57.511Z,1007.135
2019-04-07T01:46:09.848Z,1007.1487
2019-04-07T01:46:21.723Z,1007.1478
2019-04-07T01:46:33.021Z,1007.1465
2019-04-07T01:46:44.858Z,1007.1765
2019-04-07T01:46:56.920Z,1007.1334
2019-04-07T01:47:08.871Z,1007.1411
2019-04-07T01:47:20.958Z,1007.1267
2019-04-07T01:47:33.191Z,1007.1492
2019-04-07T01:47:45.021Z,1007.1548
2019-04-07T01:47:56.853Z,1007.1362
2019-04-07T01:48:08.797Z,1007.1179
2019-04-07T01:48:20.525Z,1007.1197
2019-04-07T01:48:32.372Z,1007.1181
2019-04-07T01:48:44.746Z,1007.0932
2019-04-07T01:48:56.039Z,1007.1294
2019-04-07T01:49:09.373Z,1007.1113
2019-04-07T01:49:20.712Z,1007.1722
2019-04-07T01:49:32.598Z,1007.1168
2019-04-07T01:49:45.111Z,1007.1312
2019-04-07T01:49:56.593Z,1007.0759
2019-04-07T01:50:08.210Z,1007.113
2019-04-07T01:50:19.933Z,1007.1454
2019-04-07T01:50:31.768Z,1007.1279
2019-04-07T01:50:43.938Z,1007.1278
2019-04-07T01:50:55.492Z,1007.1048
2019-04-07T01:51:07.271Z,1007.1148
2019-04-07T01:51:19.108Z,1007.1409
2019-04-07T01:51:31.055Z,1007.1278
2019-04-07T01:51:42.775Z,1007.1063
2019-04-07T01:51:54.609Z,1007.1212
2019-04-07T01:52:06.438Z,1007.1278
2019-04-07T01:52:18.348Z,1007.0965
2019-04-07T01:52:30.122Z,1007.1288
2019-04-07T01:52:42.498Z,1007.1454
2019-04-07T01:52:54.009Z,1007.0861
2019-04-07T01:53:05.854Z,1007.1124
2019-04-07T01:53:17.993Z,1007.125
2019-04-07T01:53:29.282Z,1007.13
2019-04-07T01:53:41.118Z,1007.1365
2019-04-07T01:53:53.133Z,1007.1156
2019-04-07T01:54:05.315Z,1007.1486
2019-04-07T01:54:16.629Z,1007.1135
2019-04-07T01:54:28.473Z,1007.1057
2019-04-07T01:54:40.335Z,1007.0773
2019-04-07T01:54:52.601Z,1007.0888
2019-04-07T01:55:04.029Z,1007.121
2019-04-07T01:55:15.854Z,1007.1084
2019-04-07T01:55:27.752Z,1007.0859
2019-04-07T01:55:39.962Z,1007.1209
2019-04-07T01:55:52.062Z,1007.0964
2019-04-07T01:56:03.183Z,1007.0952
2019-04-07T01:56:15.617Z,1007.1232
2019-04-07T01:56:27.261Z,1007.0761
2019-04-07T01:56:38.681Z,1007.1331
2019-04-07T01:56:50.512Z,1007.1337
2019-04-07T01:57:02.970Z,1007.0965
2019-04-07T01:57:14.634Z,1007.0374
2019-04-07T01:57:26.214Z,1007.0795
2019-04-07T01:57:37.857Z,1007.0892
2019-04-07T01:57:49.689Z,1007.0678
2019-04-07T01:58:02.031Z,1007.0687
2019-04-07T01:58:13.358Z,1007.0998
2019-04-07T01:58:25.268Z,1007.0767
2019-04-07T01:58:37.073Z,1007.057
2019-04-07T01:58:49.371Z,1007.1026
2019-04-07T01:59:00.697Z,1007.1057
2019-04-07T01:59:12.515Z,1007.0678
2019-04-07T01:59:24.351Z,1007.0712
2019-04-07T01:59:36.496Z,1007.0708
2019-04-07T01:59:48.206Z,1007.1326
2019-04-07T02:00:00.697Z,1007.1029
2019-04-07T02:00:12.596Z,1007.1127
2019-04-07T02:00:23.837Z,1007.083
2019-04-07T02:00:35.545Z,1007.1073
2019-04-07T02:00:48.336Z,1007.0676
2019-04-07T02:01:00.396Z,1007.085
2019-04-07T02:01:12.104Z,1007.0676
2019-04-07T02:01:23.880Z,1007.0577
2019-04-07T02:01:36.320Z,1007.1081
2019-04-07T02:01:48.080Z,1007.0521
2019-04-07T02:01:59.436Z,1007.067
2019-04-07T02:02:11.224Z,1007.0438
2019-04-07T02:02:23.607Z,1007.0307
2019-04-07T02:02:35.500Z,1007.0712
2019-04-07T02:02:46.732Z,1007.0658
2019-04-07T02:02:58.566Z,1007.0755
2019-04-07T02:03:10.830Z,1007.0515
2019-04-07T02:03:23.064Z,1007.0953
2019-04-07T02:03:34.162Z,1007.0706
2019-04-07T02:03:46.268Z,1007.0865
2019-04-07T02:03:58.419Z,1007.0755
2019-04-07T02:04:09.555Z,1007.08
2019-04-07T02:04:21.918Z,1007.0585
2019-04-07T02:04:33.542Z,1007.0536
2019-04-07T02:04:45.194Z,1007.0508
2019-04-07T02:04:56.936Z,1007.1029
2019-04-07T02:05:08.771Z,1007.0667
2019-04-07T02:05:20.863Z,1007.0495
2019-04-07T02:05:32.504Z,1007.0535
2019-04-07T02:05:44.334Z,1007.0697
2019-04-07T02:05:58.966Z,1007.0321
2019-04-07T02:06:09.476Z,1007.0754
2019-04-07T02:06:21.087Z,1007.0532
2019-04-07T02:06:33.210Z,1007.0643
2019-04-07T02:06:44.373Z,1007.0713
2019-04-07T02:06:56.405Z,1007.0762
2019-04-07T02:07:08.153Z,1007.0729
2019-04-07T02:07:19.897Z,1007.0607
2019-04-07T02:07:31.721Z,1007.0591
2019-04-07T02:07:43.623Z,1007.0482
2019-04-07T02:07:55.423Z,1007.0767
2019-04-07T02:08:07.786Z,1007.0585
2019-04-07T02:08:19.055Z,1007.0142
2019-04-07T02:08:30.897Z,1007.0026
2019-04-07T02:08:42.878Z,1007.0382
2019-04-07T02:08:54.985Z,1006.9926
2019-04-07T02:09:07.389Z,1007.0175
2019-04-07T02:09:19.217Z,1007.0512
2019-04-07T02:09:31.582Z,1007.0926
2019-04-07T02:09:43.288Z,1007.0321
2019-04-07T02:09:55.446Z,1007.0672
2019-04-07T02:10:06.601Z,1007.0562
2019-04-07T02:10:18.819Z,1007.0018
2019-04-07T02:10:30.611Z,1007.0127
2019-04-07T02:10:42.848Z,1006.9896
2019-04-07T02:10:53.957Z,1007.0183
2019-04-07T02:11:06.087Z,1007.0159
2019-04-07T02:11:17.668Z,1006.9863
2019-04-07T02:11:29.504Z,1006.9979
2019-04-07T02:11:41.341Z,1006.9946
2019-04-07T02:11:53.173Z,1007.0011
2019-04-07T02:12:05.016Z,1006.9914
2019-04-07T02:12:16.970Z,1007.0011
2019-04-07T02:12:28.682Z,1006.9623
2019-04-07T02:12:41.076Z,1006.9979
2019-04-07T02:12:53.097Z,1007.0375
2019-04-07T02:13:04.358Z,1006.9804
2019-04-07T02:13:16.492Z,1007.0225
2019-04-07T02:13:28.863Z,1007.0144
2019-04-07T02:13:40.701Z,1006.9981
2019-04-07T02:13:53.248Z,1006.9721
2019-04-07T02:14:04.714Z,1007.015
2019-04-07T02:14:16.292Z,1007.0298
2019-04-07T02:14:28.055Z,1007.0133
2019-04-07T02:14:39.892Z,1007.0034
2019-04-07T02:14:52.138Z,1006.9959
2019-04-07T02:15:03.571Z,1006.9657
2019-04-07T02:15:15.424Z,1007.0248
2019-04-07T02:15:27.259Z,1007.0175
2019-04-07T02:15:39.399Z,1007.009
2019-04-07T02:15:50.977Z,1007.002